Time;durP1;ratioP1;P1;durP2;ratioP2;P2;SDS_P1;SDS_P2;PMS_P1;PMS_P2;Temp;Humidity;BMP_temperature;BMP_pressure;BME280_temperature;BME280_humidity;BME280_pressure;Samples;Min_cycle;Max_cycle;Signal;HPM_P1;HPM_P2
2022/03/02 00:00:44;;;;;;;42.35;23.88;;;8.70;99.90;;;;;;5013079;28;20558;-70
2022/03/02 00:03:10;;;;;;;42.97;24.13;;;8.60;99.90;;;;;;5012658;28;20046;-74
2022/03/02 00:05:36;;;;;;;47.50;25.02;;;8.50;99.90;;;;;;5012450;28;20028;-69
2022/03/02 00:08:03;;;;;;;44.55;25.95;;;8.40;99.90;;;;;;5012907;28;20423;-71
2022/03/02 00:10:29;;;;;;;43.17;24.80;;;8.50;99.90;;;;;;5005181;28;20026;-70
2022/03/02 00:12:55;;;;;;;40.72;24.65;;;8.50;99.90;;;;;;4995925;28;20076;-69
2022/03/02 00:15:21;;;;;;;39.17;24.38;;;8.60;99.90;;;;;;4997241;28;20030;-70
2022/03/02 00:17:47;;;;;;;42.75;24.77;;;8.60;99.90;;;;;;4996703;28;20093;-71
2022/03/02 00:20:13;;;;;;;43.05;24.42;;;8.50;99.90;;;;;;4997208;28;20476;-74
2022/03/02 00:22:39;;;;;;;50.90;26.92;;;8.50;99.90;;;;;;5014998;28;20485;-74
2022/03/02 00:25:06;;;;;;;45.83;25.77;;;8.50;99.90;;;;;;5017011;28;20370;-76
2022/03/02 00:27:32;;;;;;;43.53;27.08;;;8.50;99.90;;;;;;5016343;28;20053;-69
2022/03/02 00:29:59;;;;;;;49.60;28.35;;;8.50;99.90;;;;;;5015234;28;20030;-75
2022/03/02 00:32:25;;;;;;;50.28;27.50;;;8.40;99.90;;;;;;5016293;28;20034;-70
2022/03/02 00:34:51;;;;;;;47.83;27.83;;;8.40;99.90;;;;;;5016757;28;20030;-69
2022/03/02 00:37:17;;;;;;;43.30;25.90;;;8.20;99.90;;;;;;5015364;28;20036;-69
2022/03/02 00:39:43;;;;;;;40.90;24.83;;;8.10;99.90;;;;;;5016208;28;20116;-70
2022/03/02 00:42:09;;;;;;;47.72;25.50;;;7.90;99.90;;;;;;5016489;28;20413;-72
2022/03/02 00:44:36;;;;;;;50.03;25.58;;;7.80;99.90;;;;;;5015887;28;20042;-70
2022/03/02 00:47:03;;;;;;;51.83;26.83;;;7.70;99.90;;;;;;5016429;28;20105;-71
2022/03/02 00:49:31;;;;;;;42.53;26.00;;;7.80;99.90;;;;;;5016224;28;20080;-70
2022/03/02 00:51:57;;;;;;;40.65;25.35;;;8.10;99.90;;;;;;5016098;28;20026;-72
2022/03/02 00:54:23;;;;;;;41.75;24.13;;;8.10;99.90;;;;;;5016050;28;20091;-70
2022/03/02 00:56:49;;;;;;;42.13;25.27;;;8.10;99.90;;;;;;5016280;28;20037;-70
2022/03/02 00:59:15;;;;;;;44.03;24.63;;;8.10;99.90;;;;;;5015745;28;20413;-72
2022/03/02 01:01:41;;;;;;;43.35;25.23;;;8.10;99.90;;;;;;5016027;28;20038;-74
2022/03/02 01:04:07;;;;;;;46.13;25.33;;;8.10;99.90;;;;;;5015371;28;20125;-70
2022/03/02 01:06:33;;;;;;;47.25;25.02;;;8.00;99.90;;;;;;5016010;28;20441;-71
2022/03/02 01:08:59;;;;;;;47.53;24.63;;;8.00;99.90;;;;;;5016022;28;20492;-69
2022/03/02 01:11:25;;;;;;;41.35;25.85;;;7.90;99.90;;;;;;5015830;28;20112;-70
2022/03/02 01:13:51;;;;;;;37.58;24.17;;;7.80;99.90;;;;;;5015303;28;20029;-72
2022/03/02 01:16:17;;;;;;;39.55;25.00;;;7.70;99.90;;;;;;5015687;28;20026;-72
2022/03/02 01:18:43;;;;;;;39.67;25.40;;;7.80;99.90;;;;;;5015616;28;20037;-72
2022/03/02 01:21:09;;;;;;;50.38;25.60;;;7.80;99.90;;;;;;5015807;28;20565;-75
2022/03/02 01:23:35;;;;;;;41.33;25.02;;;7.60;99.90;;;;;;5013916;28;20041;-71
2022/03/02 01:26:00;;;;;;;38.50;24.08;;;7.70;99.90;;;;;;5015610;28;20391;-76
2022/03/02 01:28:26;;;;;;;42.15;25.55;;;7.60;99.90;;;;;;5015029;28;20030;-74
2022/03/02 01:30:52;;;;;;;42.88;25.20;;;7.50;99.90;;;;;;5015365;28;20030;-73
2022/03/02 01:33:18;;;;;;;41.15;24.98;;;7.50;99.90;;;;;;5015523;28;20026;-72
2022/03/02 01:35:43;;;;;;;44.70;26.13;;;7.50;99.90;;;;;;5015078;28;20038;-69
2022/03/02 01:38:09;;;;;;;44.15;24.88;;;7.60;99.90;;;;;;5015346;28;20046;-69
2022/03/02 01:40:35;;;;;;;39.55;25.67;;;7.60;99.90;;;;;;5015330;28;20022;-74
2022/03/02 01:43:02;;;;;;;41.10;25.35;;;7.60;99.90;;;;;;5014916;28;20471;-73
2022/03/02 01:45:28;;;;;;;42.78;24.35;;;7.50;99.90;;;;;;5014988;28;20065;-72
2022/03/02 01:47:57;;;;;;;37.15;24.35;;;7.40;99.90;;;;;;5015211;28;20115;-74
2022/03/02 01:50:23;;;;;;;49.53;25.27;;;7.40;99.90;;;;;;5015382;28;20370;-73
2022/03/02 01:52:48;;;;;;;52.30;25.00;;;7.40;99.90;;;;;;5015076;28;20116;-75
2022/03/02 01:55:14;;;;;;;44.00;25.08;;;7.40;99.90;;;;;;5014967;28;20166;-74
2022/03/02 01:57:41;;;;;;;40.17;24.60;;;7.30;99.90;;;;;;5014607;28;20069;-70
2022/03/02 02:00:11;;;;;;;44.03;26.13;;;7.40;99.90;;;;;;5015114;28;20388;-73
2022/03/02 02:02:37;;;;;;;49.97;27.45;;;7.40;99.90;;;;;;5014796;28;20045;-76
2022/03/02 02:05:04;;;;;;;48.42;27.98;;;7.40;99.90;;;;;;5014656;28;20030;-73
2022/03/02 02:07:30;;;;;;;46.22;27.50;;;7.30;99.90;;;;;;5014952;28;20088;-71
2022/03/02 02:09:57;;;;;;;48.35;26.92;;;7.20;99.90;;;;;;5014415;28;20478;-72
2022/03/02 02:12:23;;;;;;;50.85;26.20;;;7.10;99.90;;;;;;5014592;28;20033;-74
2022/03/02 02:14:49;;;;;;;46.45;25.52;;;7.10;99.90;;;;;;5014597;28;20037;-71
2022/03/02 02:17:14;;;;;;;42.42;26.20;;;7.20;99.90;;;;;;5014459;28;20030;-70
2022/03/02 02:19:40;;;;;;;48.72;24.60;;;7.20;99.90;;;;;;5014452;28;20036;-70
2022/03/02 02:22:06;;;;;;;45.75;24.33;;;7.30;99.90;;;;;;5014383;28;20112;-75
2022/03/02 02:24:33;;;;;;;45.92;24.45;;;7.50;99.90;;;;;;5014451;28;20087;-70
2022/03/02 02:26:59;;;;;;;47.28;25.90;;;7.70;99.90;;;;;;5013987;28;20073;-76
2022/03/02 02:29:27;;;;;;;49.22;24.58;;;7.50;99.90;;;;;;5014406;28;20379;-76
2022/03/02 02:31:53;;;;;;;46.90;23.65;;;7.30;99.90;;;;;;5014237;28;20467;-74
2022/03/02 02:34:19;;;;;;;44.97;25.60;;;7.30;99.90;;;;;;5013718;28;20033;-70
2022/03/02 02:36:46;;;;;;;48.38;24.95;;;7.30;99.90;;;;;;5014230;28;20128;-72
2022/03/02 02:39:12;;;;;;;43.67;25.38;;;7.30;99.90;;;;;;5014315;28;20040;-69
2022/03/02 02:41:37;;;;;;;40.38;24.98;;;7.20;99.90;;;;;;5013743;28;20030;-73
2022/03/02 02:44:04;;;;;;;41.08;24.00;;;7.30;99.90;;;;;;5014218;28;20074;-70
2022/03/02 02:46:30;;;;;;;45.42;24.52;;;7.30;99.90;;;;;;5013995;28;20115;-71
2022/03/02 02:48:56;;;;;;;42.58;24.15;;;7.20;99.90;;;;;;5014141;28;20032;-70
2022/03/02 02:51:22;;;;;;;45.63;24.80;;;7.30;99.90;;;;;;5013845;28;20422;-70
2022/03/02 02:53:48;;;;;;;45.70;25.48;;;7.30;99.90;;;;;;5014052;28;20104;-72
2022/03/02 02:56:13;;;;;;;43.83;24.85;;;7.30;99.90;;;;;;5013610;28;20064;-72
2022/03/02 02:58:39;;;;;;;42.03;24.05;;;7.30;99.90;;;;;;5013928;28;20033;-69
2022/03/02 03:01:05;;;;;;;41.03;24.23;;;7.30;99.90;;;;;;5013804;28;20489;-69
2022/03/02 03:03:31;;;;;;;42.80;24.20;;;7.30;99.90;;;;;;5013592;28;20060;-71
2022/03/02 03:05:57;;;;;;;44.78;24.30;;;7.40;99.90;;;;;;5013620;28;20030;-69
2022/03/02 03:08:23;;;;;;;48.78;24.90;;;7.40;99.90;;;;;;5013779;28;20474;-69
2022/03/02 03:10:49;;;;;;;42.65;23.90;;;7.40;99.90;;;;;;5013319;28;20084;-76
2022/03/02 03:13:17;;;;;;;41.85;23.05;;;7.30;99.90;;;;;;5013507;28;20064;-69
2022/03/02 03:15:44;;;;;;;46.25;24.17;;;7.40;99.90;;;;;;5013643;28;20026;-73
2022/03/02 03:18:10;;;;;;;42.25;21.88;;;7.40;99.90;;;;;;5013597;28;20030;-71
2022/03/02 03:20:36;;;;;;;45.03;23.10;;;7.40;99.90;;;;;;5013690;28;20021;-69
2022/03/02 03:23:03;;;;;;;41.58;22.80;;;7.40;99.90;;;;;;5013295;28;20037;-70
2022/03/02 03:25:29;;;;;;;37.83;23.17;;;7.20;99.90;;;;;;5013012;28;20037;-71
2022/03/02 03:27:56;;;;;;;38.85;22.75;;;7.30;99.90;;;;;;5013228;28;20026;-69
2022/03/02 03:30:23;;;;;;;41.55;23.58;;;7.30;99.90;;;;;;5013272;28;20026;-71
2022/03/02 03:32:49;;;;;;;40.47;22.35;;;7.40;99.90;;;;;;5013470;28;20029;-69
2022/03/02 03:35:17;;;;;;;43.08;22.80;;;7.40;99.90;;;;;;5013182;28;20123;-69
2022/03/02 03:37:43;;;;;;;45.22;22.15;;;7.40;99.90;;;;;;5013075;28;20056;-75
2022/03/02 03:40:11;;;;;;;39.55;22.70;;;7.40;99.90;;;;;;5012987;28;20474;-72
2022/03/02 03:42:37;;;;;;;47.60;21.98;;;7.40;99.90;;;;;;5012876;28;20109;-68
2022/03/02 03:45:05;;;;;;;39.15;21.90;;;7.70;99.90;;;;;;5013381;28;20034;-70
2022/03/02 03:47:31;;;;;;;41.92;22.63;;;7.90;99.90;;;;;;5012038;28;20099;-69
2022/03/02 03:49:57;;;;;;;40.85;22.38;;;7.70;99.90;;;;;;5013216;28;20022;-70
2022/03/02 03:52:22;;;;;;;39.40;22.02;;;7.60;99.90;;;;;;5012897;28;20026;-69
2022/03/02 03:54:48;;;;;;;41.55;22.10;;;7.40;99.90;;;;;;5012693;28;20033;-71
2022/03/02 03:57:14;;;;;;;36.47;22.83;;;7.40;99.90;;;;;;5012770;28;20116;-68
2022/03/02 03:59:39;;;;;;;40.05;21.65;;;7.30;99.90;;;;;;5010581;28;20018;-69
2022/03/02 04:02:06;;;;;;;42.25;22.42;;;7.30;99.90;;;;;;4993322;28;20078;-70
2022/03/02 04:04:32;;;;;;;41.03;22.55;;;7.20;99.90;;;;;;4992945;28;20134;-70
2022/03/02 04:06:58;;;;;;;40.95;21.92;;;7.20;99.90;;;;;;4993164;28;20030;-70
2022/03/02 04:09:24;;;;;;;36.13;21.35;;;7.30;99.90;;;;;;4992886;28;20032;-77
2022/03/02 04:11:50;;;;;;;41.38;23.10;;;7.40;99.90;;;;;;5011952;28;20022;-73
2022/03/02 04:14:17;;;;;;;38.97;21.52;;;7.30;99.90;;;;;;5012738;28;20037;-72
2022/03/02 04:16:43;;;;;;;37.95;21.17;;;7.30;99.90;;;;;;5012662;28;20053;-74
2022/03/02 04:19:09;;;;;;;41.40;22.67;;;7.30;99.90;;;;;;5012625;28;20061;-69
2022/03/02 04:21:35;;;;;;;42.83;22.60;;;7.20;99.90;;;;;;5012724;28;20084;-70
2022/03/02 04:24:01;;;;;;;43.53;23.02;;;7.20;99.90;;;;;;5012144;28;20041;-70
2022/03/02 04:26:27;;;;;;;36.53;20.63;;;7.10;99.90;;;;;;5012499;28;20037;-69
2022/03/02 04:28:53;;;;;;;40.60;21.90;;;7.00;99.90;;;;;;5012703;28;20030;-70
2022/03/02 04:31:19;;;;;;;38.95;22.77;;;7.00;99.90;;;;;;5012657;28;20065;-70
2022/03/02 04:33:44;;;;;;;42.60;21.70;;;7.00;99.90;;;;;;5012393;28;20119;-71
2022/03/02 04:36:10;;;;;;;39.60;20.83;;;7.20;99.90;;;;;;5012613;28;20030;-70
2022/03/02 04:38:36;;;;;;;51.35;22.17;;;7.40;99.90;;;;;;5012068;28;20453;-70
2022/03/02 04:41:02;;;;;;;42.42;21.15;;;7.20;99.90;;;;;;5012693;28;20062;-69
2022/03/02 04:43:29;;;;;;;41.50;21.45;;;7.00;99.90;;;;;;5012472;28;20127;-70
2022/03/02 04:45:55;;;;;;;35.40;21.42;;;6.90;99.90;;;;;;5012592;28;20025;-70
2022/03/02 04:48:21;;;;;;;37.55;21.23;;;6.90;99.90;;;;;;5012483;28;20483;-70
2022/03/02 04:50:47;;;;;;;46.72;22.67;;;6.90;99.90;;;;;;5012675;28;20052;-69
2022/03/02 04:53:15;;;;;;;37.60;21.23;;;6.90;99.90;;;;;;5012244;28;20026;-69
2022/03/02 04:55:42;;;;;;;41.40;21.30;;;7.00;99.90;;;;;;5012123;28;20030;-69
2022/03/02 04:58:08;;;;;;;37.90;20.80;;;6.90;99.90;;;;;;5013707;28;20419;-69
2022/03/02 05:00:36;;;;;;;40.83;21.88;;;7.00;99.90;;;;;;5016111;28;20064;-70
2022/03/02 05:03:05;;;;;;;50.03;21.35;;;6.90;99.90;;;;;;5015970;28;20060;-69
2022/03/02 05:05:34;;;;;;;48.88;22.77;;;6.90;99.90;;;;;;5015473;28;20120;-69
2022/03/02 05:08:00;;;;;;;41.05;20.73;;;7.00;99.90;;;;;;5015873;28;20032;-69
2022/03/02 05:10:26;;;;;;;49.03;21.55;;;7.10;99.90;;;;;;5015687;28;20030;-69
2022/03/02 05:12:53;;;;;;;43.67;20.58;;;7.10;99.90;;;;;;5015974;28;20101;-70
2022/03/02 05:15:19;;;;;;;37.80;21.25;;;7.10;99.90;;;;;;5015720;28;20030;-69
2022/03/02 05:17:46;;;;;;;39.90;21.77;;;7.20;99.90;;;;;;5015679;28;20037;-69
2022/03/02 05:20:14;;;;;;;44.60;20.88;;;7.10;99.90;;;;;;5015407;28;20394;-69
2022/03/02 05:22:40;;;;;;;43.85;21.85;;;7.00;99.90;;;;;;5015696;28;20474;-69
2022/03/02 05:25:08;;;;;;;40.38;23.02;;;6.90;99.90;;;;;;5015634;28;20029;-69
2022/03/02 05:27:34;;;;;;;43.03;20.92;;;7.00;99.90;;;;;;5015509;28;20025;-70
2022/03/02 05:30:00;;;;;;;38.05;21.20;;;6.90;99.90;;;;;;5015460;28;20030;-70
2022/03/02 05:32:27;;;;;;;48.83;21.45;;;6.90;99.90;;;;;;5015635;28;20383;-69
2022/03/02 05:34:53;;;;;;;39.20;20.95;;;6.80;99.90;;;;;;5014980;28;20045;-69
2022/03/02 05:37:19;;;;;;;34.40;20.48;;;6.80;99.90;;;;;;5015226;28;20037;-69
2022/03/02 05:39:45;;;;;;;35.40;20.75;;;6.60;99.90;;;;;;5015446;28;20064;-69
2022/03/02 05:42:11;;;;;;;35.45;20.77;;;6.80;99.90;;;;;;5015362;28;20018;-67
2022/03/02 05:44:37;;;;;;;38.65;20.20;;;6.90;99.90;;;;;;5015162;28;20052;-68
2022/03/02 05:47:04;;;;;;;42.97;21.10;;;6.70;99.90;;;;;;5014893;28;20467;-69
2022/03/02 05:49:30;;;;;;;42.85;20.88;;;6.70;99.90;;;;;;5014869;28;20042;-68
2022/03/02 05:51:55;;;;;;;35.35;19.98;;;6.60;99.90;;;;;;5015089;28;20064;-68
2022/03/02 05:54:22;;;;;;;36.40;20.80;;;6.70;99.90;;;;;;5014940;28;20026;-69
2022/03/02 05:56:48;;;;;;;34.70;21.13;;;6.70;99.90;;;;;;5014821;28;20030;-68
2022/03/02 05:59:15;;;;;;;39.80;20.48;;;6.70;99.90;;;;;;5014933;28;20026;-69
2022/03/02 06:01:41;;;;;;;41.53;21.40;;;6.70;99.90;;;;;;5014741;28;20022;-68
2022/03/02 06:04:07;;;;;;;38.53;20.90;;;6.70;99.90;;;;;;5014397;28;20038;-68
2022/03/02 06:06:35;;;;;;;36.42;20.70;;;6.60;99.90;;;;;;5014654;28;20053;-69
2022/03/02 06:09:03;;;;;;;40.92;20.10;;;6.50;99.90;;;;;;5014309;28;20025;-68
2022/03/02 06:11:30;;;;;;;40.20;19.55;;;6.50;99.90;;;;;;5014154;28;20018;-69
2022/03/02 06:13:56;;;;;;;38.20;20.15;;;6.40;99.90;;;;;;5014621;28;20049;-68
2022/03/02 06:16:22;;;;;;;43.00;19.58;;;6.50;99.90;;;;;;5014434;28;20378;-68
2022/03/02 06:18:49;;;;;;;41.35;19.85;;;6.70;99.90;;;;;;5014429;28;20534;-68
2022/03/02 06:21:17;;;;;;;33.00;18.77;;;6.60;99.90;;;;;;5014487;28;20021;-68
2022/03/02 06:23:44;;;;;;;35.03;20.33;;;6.50;99.90;;;;;;5014305;28;20029;-69
2022/03/02 06:26:10;;;;;;;37.30;19.40;;;6.50;99.90;;;;;;5014217;28;20034;-68
2022/03/02 06:28:35;;;;;;;39.25;20.25;;;6.50;99.90;;;;;;5014161;28;20025;-68
2022/03/02 06:31:01;;;;;;;35.13;20.17;;;6.50;99.90;;;;;;5014212;28;20064;-68
2022/03/02 06:33:27;;;;;;;43.05;19.55;;;6.50;99.90;;;;;;5014029;28;20026;-68
2022/03/02 06:35:52;;;;;;;35.80;19.67;;;6.50;99.90;;;;;;5013993;28;20132;-68
2022/03/02 06:38:20;;;;;;;33.83;18.75;;;6.30;99.90;;;;;;5014184;28;20022;-68
2022/03/02 06:41:02;;;;;;;36.28;19.38;;;6.20;99.90;;;;;;5014209;28;20065;-69
2022/03/02 06:43:56;;;;;;;37.10;20.10;;;6.10;99.90;;;;;;5014077;28;20060;-68
2022/03/02 06:46:32;;;;;;;45.88;20.02;;;6.10;99.90;;;;;;5013867;28;20026;-69
2022/03/02 06:49:15;;;;;;;35.03;19.92;;;6.10;99.90;;;;;;5013934;28;20034;-68
2022/03/02 06:51:44;;;;;;;40.95;19.33;;;6.20;99.90;;;;;;5013892;28;20029;-68
2022/03/02 06:54:12;;;;;;;41.50;19.15;;;6.20;99.90;;;;;;5013973;28;20029;-68
2022/03/02 06:56:45;;;;;;;36.40;19.33;;;6.30;99.90;;;;;;5013830;28;20105;-69
2022/03/02 06:59:14;;;;;;;34.25;19.17;;;6.40;99.90;;;;;;5012653;28;20466;-69
2022/03/02 07:01:43;;;;;;;39.90;20.00;;;6.30;99.90;;;;;;5013474;28;20050;-68
2022/03/02 07:04:14;;;;;;;30.98;18.52;;;6.10;99.90;;;;;;5012530;28;20046;-68
2022/03/02 07:06:42;;;;;;;39.95;21.30;;;6.10;99.90;;;;;;5013602;28;20038;-69
2022/03/02 07:09:08;;;;;;;35.65;17.65;;;6.20;99.90;;;;;;5013764;28;20041;-69
2022/03/02 07:11:35;;;;;;;35.03;20.35;;;6.30;99.90;;;;;;5013358;28;20030;-69
2022/03/02 07:14:01;;;;;;;38.65;20.65;;;6.40;99.90;;;;;;5013724;28;20108;-69
2022/03/02 07:16:28;;;;;;;39.30;19.73;;;6.50;99.90;;;;;;5011802;28;20061;-69
2022/03/02 07:18:55;;;;;;;39.50;19.75;;;6.30;99.90;;;;;;5013442;28;20026;-69
2022/03/02 07:21:24;;;;;;;41.42;20.08;;;6.10;99.90;;;;;;5013370;28;20053;-69
2022/03/02 07:23:59;;;;;;;36.75;18.27;;;6.10;99.90;;;;;;5028524;28;20450;-69
2022/03/02 07:26:28;;;;;;;36.00;19.45;;;6.10;99.90;;;;;;5012939;28;20038;-69
2022/03/02 07:28:54;;;;;;;43.50;19.95;;;6.50;99.90;;;;;;5013403;28;20080;-72
2022/03/02 07:31:23;;;;;;;40.75;20.25;;;6.70;99.90;;;;;;5012884;28;20477;-69
2022/03/02 07:33:52;;;;;;;38.45;19.80;;;6.70;99.90;;;;;;5010810;28;20076;-68
2022/03/02 07:36:21;;;;;;;38.03;19.45;;;7.00;99.90;;;;;;5012990;28;20061;-68
2022/03/02 07:38:47;;;;;;;39.65;18.50;;;6.80;99.90;;;;;;5012188;28;20491;-69
2022/03/02 07:41:13;;;;;;;43.15;21.02;;;6.80;99.90;;;;;;5011897;28;20041;-68
2022/03/02 07:43:40;;;;;;;43.35;19.38;;;6.90;99.90;;;;;;5011610;28;20072;-69
2022/03/02 07:46:12;;;;;;;36.78;20.58;;;7.00;99.90;;;;;;4994635;28;20073;-69
2022/03/02 07:48:38;;;;;;;36.40;19.85;;;6.90;99.90;;;;;;5012888;28;20026;-69
2022/03/02 07:51:07;;;;;;;39.58;19.45;;;7.00;99.90;;;;;;5013021;28;20463;-68
2022/03/02 07:53:53;;;;;;;37.92;20.73;;;6.90;99.90;;;;;;5012706;28;20038;-69
2022/03/02 07:56:20;;;;;;;32.95;18.52;;;7.00;99.90;;;;;;5012833;28;20391;-68
2022/03/02 07:58:46;;;;;;;40.83;20.13;;;7.10;99.90;;;;;;5012801;28;20034;-69
2022/03/02 08:01:18;;;;;;;38.90;20.25;;;7.20;99.90;;;;;;5012634;28;20506;-68
2022/03/02 08:03:44;;;;;;;;;;;7.30;99.90;;;;;;5012878;28;20543;-69
2022/03/02 08:06:10;;;;;;;49.80;19.67;;;7.50;99.90;;;;;;4995438;28;19996;-69
2022/03/02 08:08:38;;;;;;;39.15;19.90;;;7.40;99.90;;;;;;5012718;28;20026;-69
2022/03/02 08:11:05;;;;;;;36.00;19.83;;;7.50;99.90;;;;;;5012757;28;20120;-71
2022/03/02 08:13:33;;;;;;;41.33;19.88;;;7.70;99.90;;;;;;5027790;28;20034;-69
2022/03/02 08:16:00;;;;;;;49.45;20.58;;;7.80;99.90;;;;;;5012531;28;20053;-68
2022/03/02 08:18:26;;;;;;;41.08;19.20;;;7.80;99.90;;;;;;5012732;28;20045;-69
2022/03/02 08:20:54;;;;;;;43.67;21.25;;;7.90;99.90;;;;;;5012844;28;20022;-69
2022/03/02 08:23:22;;;;;;;39.03;20.60;;;7.90;99.90;;;;;;5012386;28;20491;-69
2022/03/02 08:25:52;;;;;;;42.40;19.48;;;7.80;99.90;;;;;;5011614;28;20483;-69
2022/03/02 08:28:19;;;;;;;51.15;21.70;;;7.90;99.90;;;;;;5012102;28;20034;-69
2022/03/02 08:30:48;;;;;;;41.28;21.25;;;8.00;99.90;;;;;;5012462;28;20073;-69
2022/03/02 08:33:19;;;;;;;34.92;20.00;;;8.10;99.90;;;;;;5013891;28;20033;-69
2022/03/02 08:35:46;;;;;;;40.15;20.27;;;8.20;99.90;;;;;;5016315;28;20038;-69
2022/03/02 08:38:12;;;;;;;45.83;21.10;;;8.30;99.90;;;;;;5016023;28;20044;-69
2022/03/02 08:40:38;;;;;;;38.65;19.98;;;8.30;99.80;;;;;;5016425;28;20029;-69
2022/03/02 08:43:06;;;;;;;45.35;20.80;;;8.40;99.50;;;;;;5014355;28;20042;-69
2022/03/02 08:45:32;;;;;;;42.28;19.23;;;8.50;99.90;;;;;;5014447;28;20034;-69
2022/03/02 08:48:04;;;;;;;44.60;21.40;;;8.90;99.80;;;;;;5015736;28;20033;-69
2022/03/02 08:50:31;;;;;;;41.50;19.85;;;8.90;99.70;;;;;;5015126;28;20551;-69
2022/03/02 08:52:58;;;;;;;38.42;20.90;;;8.80;99.30;;;;;;5016269;28;20063;-69
2022/03/02 08:55:28;;;;;;;32.95;19.65;;;8.90;99.50;;;;;;5014841;28;20062;-69
2022/03/02 08:57:55;;;;;;;42.20;19.90;;;9.00;99.40;;;;;;5016099;28;20402;-69
2022/03/02 09:00:21;;;;;;;36.20;20.50;;;9.20;99.50;;;;;;5016121;28;20167;-69
2022/03/02 09:02:47;;;;;;;35.40;20.80;;;9.20;99.10;;;;;;5016227;28;20108;-69
2022/03/02 09:05:13;;;;;;;35.80;20.05;;;9.10;99.10;;;;;;5016199;28;20050;-69
2022/03/02 09:07:40;;;;;;;38.42;20.48;;;9.20;99.00;;;;;;5015883;28;20051;-69
2022/03/02 09:10:07;;;;;;;35.05;18.90;;;9.10;99.30;;;;;;5015879;28;20018;-69
2022/03/02 09:12:33;;;;;;;36.22;19.70;;;9.00;99.20;;;;;;5015658;28;20038;-69
2022/03/02 09:14:59;;;;;;;45.22;19.52;;;9.10;98.60;;;;;;5015911;28;20140;-69
2022/03/02 09:17:25;;;;;;;42.13;19.25;;;9.20;97.80;;;;;;5015598;28;20175;-69
2022/03/02 09:19:56;;;;;;;35.13;19.85;;;9.10;98.60;;;;;;5015432;28;20528;-69
2022/03/02 09:22:23;;;;;;;35.63;19.90;;;9.40;98.10;;;;;;5015516;28;20101;-69
2022/03/02 09:24:50;;;;;;;41.28;19.33;;;9.50;97.90;;;;;;5014002;28;20037;-69
2022/03/02 09:27:18;;;;;;;29.00;18.10;;;9.60;97.50;;;;;;5014844;28;20092;-69
2022/03/02 09:29:46;;;;;;;33.78;18.77;;;9.40;97.10;;;;;;5015471;28;20494;-69
2022/03/02 09:32:14;;;;;;;37.50;18.50;;;9.50;97.60;;;;;;5011621;28;20018;-70
2022/03/02 09:34:45;;;;;;;37.17;19.13;;;9.60;97.90;;;;;;5014672;28;20045;-69
2022/03/02 09:37:15;;;;;;;35.60;19.15;;;9.80;96.90;;;;;;5015028;28;20178;-69
2022/03/02 09:39:43;;;;;;;37.22;18.55;;;9.80;97.00;;;;;;5015004;28;20364;-70
2022/03/02 09:42:15;;;;;;;31.35;17.95;;;10.00;97.00;;;;;;5014907;28;20026;-69
2022/03/02 09:44:45;;;;;;;31.60;18.92;;;10.10;96.60;;;;;;5013597;28;20049;-70
2022/03/02 09:47:21;;;;;;;35.83;18.50;;;9.90;96.30;;;;;;5014529;28;20513;-70
2022/03/02 09:49:57;;;;;;;34.50;18.45;;;9.90;96.90;;;;;;4997124;28;20128;-69
2022/03/02 09:52:24;;;;;;;33.17;18.42;;;10.00;96.50;;;;;;5014739;28;20034;-70
2022/03/02 09:54:57;;;;;;;35.78;19.13;;;10.20;96.80;;;;;;5014808;28;20029;-70
2022/03/02 09:57:24;;;;;;;34.58;18.88;;;10.50;96.70;;;;;;5013338;28;20054;-70
2022/03/02 09:59:54;;;;;;;45.92;18.80;;;10.50;96.30;;;;;;5014775;28;20056;-70
2022/03/02 10:02:32;;;;;;;40.00;19.05;;;10.80;96.40;;;;;;5019767;28;20128;-70
2022/03/02 10:05:05;;;;;;;36.70;18.42;;;11.00;95.60;;;;;;5014750;28;20128;-70
2022/03/02 10:07:35;;;;;;;31.30;18.58;;;10.90;95.50;;;;;;5014230;28;20471;-70
2022/03/02 10:10:08;;;;;;;31.88;18.58;;;11.10;94.90;;;;;;5012774;28;20488;-69
2022/03/02 10:12:34;;;;;;;35.35;18.55;;;11.20;95.40;;;;;;5014794;28;20072;-70
2022/03/02 10:15:02;;;;;;;38.30;19.10;;;11.40;95.40;;;;;;5013251;28;20436;-70
2022/03/02 10:17:37;;;;;;;32.25;18.42;;;11.80;95.00;;;;;;5012948;28;20040;-70
2022/03/02 10:20:11;;;;;;;25.13;16.05;;;11.90;94.60;;;;;;5014295;28;20054;-70
2022/03/02 10:22:40;;;;;;;30.92;15.90;;;11.90;94.20;;;;;;5013999;28;20144;-70
2022/03/02 10:25:11;;;;;;;28.98;16.33;;;12.00;93.70;;;;;;5013965;28;20062;-73
2022/03/02 10:28:00;;;;;;;33.47;17.77;;;12.00;93.60;;;;;;5014223;28;20038;-70
2022/03/02 10:30:40;;;;;;;30.85;16.35;;;12.10;93.00;;;;;;5014033;28;20036;-70
2022/03/02 10:33:21;;;;;;;31.23;16.42;;;12.10;93.10;;;;;;5013776;28;20034;-69
2022/03/02 10:36:10;;;;;;;39.22;17.45;;;12.20;93.30;;;;;;5013920;28;20068;-69
2022/03/02 10:38:46;;;;;;;37.92;17.10;;;12.10;93.50;;;;;;5012779;28;20029;-70
2022/03/02 10:41:13;;;;;;;27.55;15.23;;;12.30;92.60;;;;;;5012149;28;20030;-70
2022/03/02 10:43:48;;;;;;;27.67;15.43;;;12.40;92.30;;;;;;5012600;28;20030;-70
2022/03/02 10:46:22;;;;;;;28.30;15.10;;;12.70;91.60;;;;;;5012480;28;20562;-70
2022/03/02 10:49:13;;;;;;;33.20;16.05;;;12.80;91.30;;;;;;5013795;28;20057;-70
2022/03/02 10:51:41;;;;;;;23.88;14.73;;;12.80;90.90;;;;;;5012506;28;20113;-70
2022/03/02 10:54:07;;;;;;;26.63;13.90;;;13.10;90.50;;;;;;5013535;28;20101;-70
2022/03/02 10:56:39;;;;;;;31.35;15.13;;;13.40;90.50;;;;;;5013305;28;20026;-70
2022/03/02 10:59:11;;;;;;;27.38;15.68;;;13.30;88.80;;;;;;5013736;28;20104;-70
2022/03/02 11:01:37;;;;;;;;;;;13.30;88.80;;;;;;5013723;28;20025;-70
2022/03/02 11:04:05;;;;;;;30.48;13.13;;;13.40;89.30;;;;;;5013537;28;20357;-70
2022/03/02 11:06:32;;;;;;;30.13;15.05;;;13.70;90.20;;;;;;5013450;28;20121;-69
2022/03/02 11:09:00;;;;;;;24.17;14.63;;;14.20;88.80;;;;;;5013237;28;20030;-70
2022/03/02 11:11:26;;;;;;;24.65;14.05;;;14.40;86.40;;;;;;5013150;28;20106;-70
2022/03/02 11:13:54;;;;;;;28.23;14.95;;;14.60;86.10;;;;;;5013478;28;20072;-70
2022/03/02 11:16:21;;;;;;;31.20;14.95;;;15.10;87.00;;;;;;5013112;28;20022;-70
2022/03/02 11:18:52;;;;;;;22.20;12.95;;;15.90;85.50;;;;;;5012245;28;20033;-70
2022/03/02 11:21:27;;;;;;;32.05;14.15;;;15.60;79.80;;;;;;5013194;28;20437;-70
2022/03/02 11:23:56;;;;;;;21.10;12.23;;;15.70;81.90;;;;;;5028125;28;20452;-70
2022/03/02 11:26:24;;;;;;;22.45;12.48;;;14.90;79.20;;;;;;5012947;28;20030;-70
2022/03/02 11:28:55;;;;;;;21.38;13.25;;;15.20;81.30;;;;;;5013147;28;20035;-71
2022/03/02 11:31:26;;;;;;;22.02;12.63;;;16.00;78.90;;;;;;5013165;28;20038;-70
2022/03/02 11:34:14;;;;;;;24.55;12.82;;;16.20;79.50;;;;;;5012985;28;20021;-70
2022/03/02 11:36:45;;;;;;;19.67;12.02;;;16.80;78.80;;;;;;5012975;28;20042;-70
2022/03/02 11:39:12;;;;;;;19.97;11.30;;;16.90;78.20;;;;;;4995402;28;20022;-70
2022/03/02 11:41:41;;;;;;;18.25;11.95;;;17.30;77.30;;;;;;5011761;28;20033;-70
2022/03/02 11:44:43;;;;;;;17.38;12.13;;;17.40;75.40;;;;;;5012894;28;20141;-70
2022/03/02 11:47:13;;;;;;;;;;;17.80;76.10;;;;;;5010716;28;20042;-71
2022/03/02 11:49:46;;;;;;;18.65;11.73;;;18.10;75.20;;;;;;5013110;28;19965;-70
2022/03/02 11:52:19;;;;;;;21.67;12.15;;;17.90;75.90;;;;;;5012486;28;20121;-70
2022/03/02 11:55:09;;;;;;;21.70;12.13;;;19.00;74.40;;;;;;5013075;28;20041;-70
2022/03/02 11:57:48;;;;;;;23.02;11.05;;;19.50;73.90;;;;;;5012620;28;20018;-70
2022/03/02 12:00:16;;;;;;;18.52;11.10;;;19.70;73.30;;;;;;5012856;28;20426;-70
2022/03/02 12:02:54;;;;;;;19.25;11.43;;;20.30;73.50;;;;;;5011485;28;20493;-70
2022/03/02 12:05:27;;;;;;;16.73;10.98;;;20.40;71.70;;;;;;5012718;28;20498;-70
2022/03/02 12:08:03;;;;;;;16.50;11.27;;;19.90;71.70;;;;;;5013307;28;20038;-70
2022/03/02 12:10:32;;;;;;;19.60;11.20;;;20.80;71.70;;;;;;5016709;28;20436;-72
2022/03/02 12:12:58;;;;;;;17.92;10.52;;;20.70;70.70;;;;;;5016581;28;20379;-70
2022/03/02 12:15:26;;;;;;;20.88;10.82;;;21.10;69.40;;;;;;5016548;28;20452;-70
2022/03/02 12:18:06;;;;;;;18.65;11.02;;;20.20;68.60;;;;;;5016703;28;20083;-70
2022/03/02 12:20:33;;;;;;;18.75;10.82;;;19.90;69.50;;;;;;5016515;28;20446;-70
2022/03/02 12:22:59;;;;;;;19.60;10.60;;;18.90;66.30;;;;;;5016450;28;20390;-70
2022/03/02 12:25:27;;;;;;;21.00;11.15;;;19.30;70.20;;;;;;5015483;28;20038;-71
2022/03/02 12:28:01;;;;;;;19.00;10.93;;;20.00;68.70;;;;;;5016435;28;20014;-71
2022/03/02 12:30:35;;;;;;;16.88;10.98;;;19.90;68.50;;;;;;5016709;28;20402;-70
2022/03/02 12:33:02;;;;;;;17.08;11.25;;;20.20;69.10;;;;;;5016528;28;20066;-70
2022/03/02 12:35:28;;;;;;;14.82;11.13;;;19.90;69.50;;;;;;5014587;28;20497;-71
2022/03/02 12:38:00;;;;;;;16.05;10.25;;;20.00;68.50;;;;;;5015341;28;20033;-71
2022/03/02 12:40:29;;;;;;;17.50;9.70;;;20.00;67.10;;;;;;5016427;28;20038;-71